sensor_id;sensor_type;location;lat;lon;timestamp;pressure;altitude;pressure_sealevel;temperature;humidity
77450;BME280;66536;53.150;18.172;2023-04-03T00:01:03;102433.02;;;0.44;72.88
77450;BME280;66536;53.150;18.172;2023-04-03T00:03:35;102430.27;;;0.50;72.72
77450;BME280;66536;53.150;18.172;2023-04-03T00:06:20;102427.62;;;0.56;72.43
77450;BME280;66536;53.150;18.172;2023-04-03T00:08:53;102425.73;;;0.62;72.27
77450;BME280;66536;53.150;18.172;2023-04-03T00:11:33;102429.23;;;0.65;72.31
77450;BME280;66536;53.150;18.172;2023-04-03T00:14:19;102425.02;;;0.67;72.11
77450;BME280;66536;53.150;18.172;2023-04-03T00:16:55;102425.40;;;0.67;72.08
77450;BME280;66536;53.150;18.172;2023-04-03T00:19:21;102426.66;;;0.66;72.09
77450;BME280;66536;53.150;18.172;2023-04-03T00:21:47;102425.16;;;0.63;72.16
77450;BME280;66536;53.150;18.172;2023-04-03T00:24:19;102422.56;;;0.58;71.97
77450;BME280;66536;53.150;18.172;2023-04-03T00:26:51;102424.23;;;0.54;72.28
77450;BME280;66536;53.150;18.172;2023-04-03T00:29:24;102423.94;;;0.51;72.32
77450;BME280;66536;53.150;18.172;2023-04-03T00:31:53;102421.23;;;0.50;72.23
77450;BME280;66536;53.150;18.172;2023-04-03T00:34:42;102422.78;;;0.50;72.29
77450;BME280;66536;53.150;18.172;2023-04-03T00:37:16;102421.09;;;0.47;72.19
77450;BME280;66536;53.150;18.172;2023-04-03T00:39:47;102421.88;;;0.43;72.37
77450;BME280;66536;53.150;18.172;2023-04-03T00:42:22;102420.02;;;0.38;72.39
77450;BME280;66536;53.150;18.172;2023-04-03T00:45:22;102423.20;;;0.33;72.57
77450;BME280;66536;53.150;18.172;2023-04-03T00:48:10;102422.44;;;0.29;72.51
77450;BME280;66536;53.150;18.172;2023-04-03T00:50:56;102419.48;;;0.25;72.73
77450;BME280;66536;53.150;18.172;2023-04-03T00:53:46;102419.45;;;0.20;72.68
77450;BME280;66536;53.150;18.172;2023-04-03T00:56:23;102422.71;;;0.14;72.82
77450;BME280;66536;53.150;18.172;2023-04-03T00:59:06;102422.66;;;0.07;73.12
77450;BME280;66536;53.150;18.172;2023-04-03T01:01:41;102420.00;;;0.01;73.09
77450;BME280;66536;53.150;18.172;2023-04-03T01:04:27;102421.48;;;-0.04;73.16
77450;BME280;66536;53.150;18.172;2023-04-03T01:07:32;102423.75;;;-0.05;73.17
77450;BME280;66536;53.150;18.172;2023-04-03T01:10:13;102420.84;;;-0.05;73.14
77450;BME280;66536;53.150;18.172;2023-04-03T01:12:49;102417.34;;;-0.05;73.20
77450;BME280;66536;53.150;18.172;2023-04-03T01:15:42;102420.89;;;-0.08;73.22
77450;BME280;66536;53.150;18.172;2023-04-03T01:18:11;102425.19;;;-0.12;73.39
77450;BME280;66536;53.150;18.172;2023-04-03T01:21:12;102426.39;;;-0.17;73.72
77450;BME280;66536;53.150;18.172;2023-04-03T01:23:58;102422.84;;;-0.20;73.77
77450;BME280;66536;53.150;18.172;2023-04-03T01:26:36;102426.52;;;-0.19;73.83
77450;BME280;66536;53.150;18.172;2023-04-03T01:29:10;102425.77;;;-0.18;73.83
77450;BME280;66536;53.150;18.172;2023-04-03T01:31:59;102430.13;;;-0.17;73.79
77450;BME280;66536;53.150;18.172;2023-04-03T01:34:42;102431.20;;;-0.18;73.75
77450;BME280;66536;53.150;18.172;2023-04-03T01:37:27;102434.07;;;-0.21;73.74
77450;BME280;66536;53.150;18.172;2023-04-03T01:40:14;102434.00;;;-0.25;73.88
77450;BME280;66536;53.150;18.172;2023-04-03T01:42:55;102434.81;;;-0.30;73.93
77450;BME280;66536;53.150;18.172;2023-04-03T01:45:33;102435.73;;;-0.34;74.17
77450;BME280;66536;53.150;18.172;2023-04-03T01:48:24;102434.89;;;-0.37;74.13
77450;BME280;66536;53.150;18.172;2023-04-03T01:51:05;102435.41;;;-0.40;74.43
77450;BME280;66536;53.150;18.172;2023-04-03T01:53:44;102438.13;;;-0.40;74.41
77450;BME280;66536;53.150;18.172;2023-04-03T01:56:47;102436.30;;;-0.40;74.72
77450;BME280;66536;53.150;18.172;2023-04-03T01:59:14;102439.20;;;-0.41;74.65
77450;BME280;66536;53.150;18.172;2023-04-03T02:01:44;102435.66;;;-0.41;74.92
77450;BME280;66536;53.150;18.172;2023-04-03T02:04:11;102437.08;;;-0.39;74.76
77450;BME280;66536;53.150;18.172;2023-04-03T02:06:40;102441.02;;;-0.37;75.00
77450;BME280;66536;53.150;18.172;2023-04-03T02:09:06;102435.48;;;-0.35;74.70
77450;BME280;66536;53.150;18.172;2023-04-03T02:11:40;102439.66;;;-0.34;74.66
77450;BME280;66536;53.150;18.172;2023-04-03T02:14:08;102441.08;;;-0.35;74.69
77450;BME280;66536;53.150;18.172;2023-04-03T02:16:35;102439.85;;;-0.37;74.65
77450;BME280;66536;53.150;18.172;2023-04-03T02:19:09;102442.70;;;-0.40;74.71
77450;BME280;66536;53.150;18.172;2023-04-03T02:21:35;102444.02;;;-0.42;74.89
77450;BME280;66536;53.150;18.172;2023-04-03T02:24:01;102446.24;;;-0.42;74.92
77450;BME280;66536;53.150;18.172;2023-04-03T02:26:33;102448.75;;;-0.41;74.99
77450;BME280;66536;53.150;18.172;2023-04-03T02:29:03;102450.17;;;-0.40;74.97
77450;BME280;66536;53.150;18.172;2023-04-03T02:31:29;102448.60;;;-0.39;75.05
77450;BME280;66536;53.150;18.172;2023-04-03T02:34:01;102449.13;;;-0.39;75.03
77450;BME280;66536;53.150;18.172;2023-04-03T02:36:29;102448.45;;;-0.39;75.10
77450;BME280;66536;53.150;18.172;2023-04-03T02:38:57;102452.73;;;-0.37;75.39
77450;BME280;66536;53.150;18.172;2023-04-03T02:41:25;102453.79;;;-0.35;75.11
77450;BME280;66536;53.150;18.172;2023-04-03T02:44:00;102450.04;;;-0.35;75.12
77450;BME280;66536;53.150;18.172;2023-04-03T02:46:26;102451.88;;;-0.34;75.17
77450;BME280;66536;53.150;18.172;2023-04-03T02:48:57;102458.66;;;-0.34;75.15
77450;BME280;66536;53.150;18.172;2023-04-03T02:51:23;102454.46;;;-0.35;75.28
77450;BME280;66536;53.150;18.172;2023-04-03T02:53:58;102455.01;;;-0.36;75.21
77450;BME280;66536;53.150;18.172;2023-04-03T02:56:29;102455.26;;;-0.37;75.39
77450;BME280;66536;53.150;18.172;2023-04-03T02:58:56;102459.85;;;-0.37;75.44
77450;BME280;66536;53.150;18.172;2023-04-03T03:01:24;102460.79;;;-0.39;75.44
77450;BME280;66536;53.150;18.172;2023-04-03T03:03:50;102459.75;;;-0.41;75.49
77450;BME280;66536;53.150;18.172;2023-04-03T03:06:19;102467.42;;;-0.42;75.61
77450;BME280;66536;53.150;18.172;2023-04-03T03:08:48;102467.65;;;-0.43;75.67
77450;BME280;66536;53.150;18.172;2023-04-03T03:11:17;102471.27;;;-0.44;75.72
77450;BME280;66536;53.150;18.172;2023-04-03T03:13:46;102469.31;;;-0.42;75.70
77450;BME280;66536;53.150;18.172;2023-04-03T03:16:27;102473.39;;;-0.40;75.52
77450;BME280;66536;53.150;18.172;2023-04-03T03:18:53;102478.64;;;-0.40;75.54
77450;BME280;66536;53.150;18.172;2023-04-03T03:21:21;102476.55;;;-0.39;75.47
77450;BME280;66536;53.150;18.172;2023-04-03T03:23:48;102484.14;;;-0.38;75.35
77450;BME280;66536;53.150;18.172;2023-04-03T03:26:14;102478.54;;;-0.38;75.28
77450;BME280;66536;53.150;18.172;2023-04-03T03:28:42;102481.31;;;-0.36;75.18
77450;BME280;66536;53.150;18.172;2023-04-03T03:31:08;102479.96;;;-0.36;75.14
77450;BME280;66536;53.150;18.172;2023-04-03T03:33:36;102479.11;;;-0.36;75.08
77450;BME280;66536;53.150;18.172;2023-04-03T03:36:02;102485.22;;;-0.36;75.01
77450;BME280;66536;53.150;18.172;2023-04-03T03:38:29;102486.92;;;-0.36;75.02
77450;BME280;66536;53.150;18.172;2023-04-03T03:40:55;102484.20;;;-0.36;74.95
77450;BME280;66536;53.150;18.172;2023-04-03T03:43:23;102489.70;;;-0.35;74.81
77450;BME280;66536;53.150;18.172;2023-04-03T03:45:52;102491.17;;;-0.37;74.87
77450;BME280;66536;53.150;18.172;2023-04-03T03:48:20;102493.41;;;-0.40;75.02
77450;BME280;66536;53.150;18.172;2023-04-03T03:50:48;102492.67;;;-0.44;75.01
77450;BME280;66536;53.150;18.172;2023-04-03T03:53:15;102494.98;;;-0.49;75.11
77450;BME280;66536;53.150;18.172;2023-04-03T03:55:42;102500.82;;;-0.53;75.16
77450;BME280;66536;53.150;18.172;2023-04-03T03:58:29;102503.34;;;-0.56;75.32
77450;BME280;66536;53.150;18.172;2023-04-03T04:01:01;102507.93;;;-0.56;75.30
77450;BME280;66536;53.150;18.172;2023-04-03T04:03:32;102509.05;;;-0.57;75.22
77450;BME280;66536;53.150;18.172;2023-04-03T04:06:14;102510.91;;;-0.60;75.15
77450;BME280;66536;53.150;18.172;2023-04-03T04:08:45;102514.65;;;-0.63;75.24
77450;BME280;66536;53.150;18.172;2023-04-03T04:11:12;102514.86;;;-0.67;75.14
77450;BME280;66536;53.150;18.172;2023-04-03T04:14:15;102515.92;;;-0.71;75.20
77450;BME280;66536;53.150;18.172;2023-04-03T04:16:41;102519.06;;;-0.72;75.25
77450;BME280;66536;53.150;18.172;2023-04-03T04:19:11;102516.15;;;-0.72;75.17
77450;BME280;66536;53.150;18.172;2023-04-03T04:21:38;102517.92;;;-0.73;75.18
77450;BME280;66536;53.150;18.172;2023-04-03T04:24:05;102524.78;;;-0.74;75.25
77450;BME280;66536;53.150;18.172;2023-04-03T04:26:32;102521.64;;;-0.75;75.31
77450;BME280;66536;53.150;18.172;2023-04-03T04:29:00;102521.52;;;-0.73;75.23
77450;BME280;66536;53.150;18.172;2023-04-03T04:31:31;102522.23;;;-0.71;75.15
77450;BME280;66536;53.150;18.172;2023-04-03T04:33:57;102522.28;;;-0.69;75.06
77450;BME280;66536;53.150;18.172;2023-04-03T04:36:25;102523.91;;;-0.65;75.02
77450;BME280;66536;53.150;18.172;2023-04-03T04:38:52;102526.20;;;-0.61;74.90
77450;BME280;66536;53.150;18.172;2023-04-03T04:41:20;102526.00;;;-0.57;74.73
77450;BME280;66536;53.150;18.172;2023-04-03T04:43:49;102531.30;;;-0.52;74.72
77450;BME280;66536;53.150;18.172;2023-04-03T04:46:16;102529.36;;;-0.43;74.41
77450;BME280;66536;53.150;18.172;2023-04-03T04:48:47;102528.35;;;-0.29;73.88
77450;BME280;66536;53.150;18.172;2023-04-03T04:51:16;102536.97;;;-0.20;73.63
77450;BME280;66536;53.150;18.172;2023-04-03T04:53:42;102539.77;;;-0.13;73.34
77450;BME280;66536;53.150;18.172;2023-04-03T04:56:10;102542.71;;;-0.09;72.96
77450;BME280;66536;53.150;18.172;2023-04-03T04:58:37;102542.57;;;-0.06;72.93
77450;BME280;66536;53.150;18.172;2023-04-03T05:01:06;102542.38;;;-0.06;72.79
77450;BME280;66536;53.150;18.172;2023-04-03T05:03:37;102550.41;;;-0.04;72.48
77450;BME280;66536;53.150;18.172;2023-04-03T05:06:05;102553.14;;;-0.01;72.39
77450;BME280;66536;53.150;18.172;2023-04-03T05:08:32;102554.60;;;0.03;72.36
77450;BME280;66536;53.150;18.172;2023-04-03T05:11:00;102553.11;;;0.08;72.16
77450;BME280;66536;53.150;18.172;2023-04-03T05:13:27;102559.98;;;0.14;71.75
77450;BME280;66536;53.150;18.172;2023-04-03T05:15:55;102560.33;;;0.23;71.38
77450;BME280;66536;53.150;18.172;2023-04-03T05:18:21;102560.15;;;0.28;71.31
77450;BME280;66536;53.150;18.172;2023-04-03T05:20:49;102560.53;;;0.36;71.05
77450;BME280;66536;53.150;18.172;2023-04-03T05:23:23;102562.96;;;0.43;70.84
77450;BME280;66536;53.150;18.172;2023-04-03T05:25:49;102562.13;;;0.48;70.66
77450;BME280;66536;53.150;18.172;2023-04-03T05:28:16;102560.20;;;0.49;70.31
77450;BME280;66536;53.150;18.172;2023-04-03T05:30:43;102559.25;;;0.51;70.51
77450;BME280;66536;53.150;18.172;2023-04-03T05:33:09;102564.21;;;0.53;70.48
77450;BME280;66536;53.150;18.172;2023-04-03T05:35:41;102562.34;;;0.50;70.42
77450;BME280;66536;53.150;18.172;2023-04-03T05:38:15;102565.50;;;0.46;70.48
77450;BME280;66536;53.150;18.172;2023-04-03T05:40:42;102561.58;;;0.41;70.17
77450;BME280;66536;53.150;18.172;2023-04-03T05:43:09;102565.48;;;0.41;70.34
77450;BME280;66536;53.150;18.172;2023-04-03T05:45:36;102563.63;;;0.46;70.66
77450;BME280;66536;53.150;18.172;2023-04-03T05:48:03;102565.14;;;0.49;70.48
77450;BME280;66536;53.150;18.172;2023-04-03T05:50:29;102564.02;;;0.53;70.30
77450;BME280;66536;53.150;18.172;2023-04-03T05:52:57;102567.25;;;0.61;69.97
77450;BME280;66536;53.150;18.172;2023-04-03T05:55:25;102565.67;;;0.70;69.96
77450;BME280;66536;53.150;18.172;2023-04-03T05:57:52;102563.04;;;0.79;69.65
77450;BME280;66536;53.150;18.172;2023-04-03T06:00:19;102561.08;;;0.89;69.15
77450;BME280;66536;53.150;18.172;2023-04-03T06:02:48;102564.50;;;0.98;68.42
77450;BME280;66536;53.150;18.172;2023-04-03T06:05:18;102565.67;;;1.07;68.42
77450;BME280;66536;53.150;18.172;2023-04-03T06:07:45;102575.84;;;1.16;68.09
77450;BME280;66536;53.150;18.172;2023-04-03T06:10:16;102576.63;;;1.24;67.72
77450;BME280;66536;53.150;18.172;2023-04-03T06:12:43;102577.38;;;1.34;67.89
77450;BME280;66536;53.150;18.172;2023-04-03T06:15:28;102579.47;;;1.43;67.56
77450;BME280;66536;53.150;18.172;2023-04-03T06:17:54;102579.95;;;1.48;67.27
77450;BME280;66536;53.150;18.172;2023-04-03T06:20:21;102575.63;;;1.55;67.41
77450;BME280;66536;53.150;18.172;2023-04-03T06:22:48;102581.41;;;1.62;67.32
77450;BME280;66536;53.150;18.172;2023-04-03T06:25:15;102584.88;;;1.71;66.51
77450;BME280;66536;53.150;18.172;2023-04-03T06:27:43;102592.08;;;1.80;65.07
77450;BME280;66536;53.150;18.172;2023-04-03T06:30:10;102588.90;;;1.92;64.79
77450;BME280;66536;53.150;18.172;2023-04-03T06:32:37;102592.73;;;2.03;63.84
77450;BME280;66536;53.150;18.172;2023-04-03T06:35:04;102592.36;;;2.04;63.48
77450;BME280;66536;53.150;18.172;2023-04-03T06:37:31;102596.58;;;2.02;63.57
77450;BME280;66536;53.150;18.172;2023-04-03T06:39:58;102593.56;;;2.01;63.97
77450;BME280;66536;53.150;18.172;2023-04-03T06:42:26;102597.17;;;2.05;64.18
77450;BME280;66536;53.150;18.172;2023-04-03T06:44:57;102597.14;;;2.16;63.60
77450;BME280;66536;53.150;18.172;2023-04-03T06:47:23;102593.21;;;2.21;63.31
77450;BME280;66536;53.150;18.172;2023-04-03T06:49:49;102590.01;;;2.28;62.40
77450;BME280;66536;53.150;18.172;2023-04-03T06:52:15;102598.56;;;2.34;62.36
77450;BME280;66536;53.150;18.172;2023-04-03T06:54:42;102601.55;;;2.45;61.90
77450;BME280;66536;53.150;18.172;2023-04-03T06:57:08;102607.00;;;2.60;61.17
77450;BME280;66536;53.150;18.172;2023-04-03T06:59:37;102604.16;;;2.78;59.99
77450;BME280;66536;53.150;18.172;2023-04-03T07:02:03;102611.63;;;2.99;60.16
77450;BME280;66536;53.150;18.172;2023-04-03T07:04:30;102613.58;;;3.22;59.10
77450;BME280;66536;53.150;18.172;2023-04-03T07:06:56;102616.60;;;3.30;56.69
77450;BME280;66536;53.150;18.172;2023-04-03T07:09:22;102614.60;;;3.20;54.75
77450;BME280;66536;53.150;18.172;2023-04-03T07:11:48;102617.28;;;3.23;54.93
77450;BME280;66536;53.150;18.172;2023-04-03T07:14:16;102624.14;;;3.36;55.08
77450;BME280;66536;53.150;18.172;2023-04-03T07:16:44;102606.55;;;3.48;53.17
77450;BME280;66536;53.150;18.172;2023-04-03T07:19:10;102624.70;;;3.49;52.51
77450;BME280;66536;53.150;18.172;2023-04-03T07:21:36;102623.26;;;3.57;52.77
77450;BME280;66536;53.150;18.172;2023-04-03T07:24:02;102624.48;;;3.68;52.45
77450;BME280;66536;53.150;18.172;2023-04-03T07:26:28;102628.64;;;3.78;51.93
77450;BME280;66536;53.150;18.172;2023-04-03T07:28:55;102630.20;;;3.76;50.76
77450;BME280;66536;53.150;18.172;2023-04-03T07:31:22;102637.66;;;3.67;51.13
77450;BME280;66536;53.150;18.172;2023-04-03T07:33:51;102636.95;;;3.59;49.92
77450;BME280;66536;53.150;18.172;2023-04-03T07:36:19;102646.90;;;3.44;50.49
77450;BME280;66536;53.150;18.172;2023-04-03T07:38:46;102642.96;;;3.45;50.20
77450;BME280;66536;53.150;18.172;2023-04-03T07:41:15;102649.64;;;3.49;49.85
77450;BME280;66536;53.150;18.172;2023-04-03T07:43:44;102644.48;;;3.47;47.67
77450;BME280;66536;53.150;18.172;2023-04-03T07:46:10;102649.15;;;3.44;46.77
77450;BME280;66536;53.150;18.172;2023-04-03T07:48:36;102649.62;;;3.42;48.49
77450;BME280;66536;53.150;18.172;2023-04-03T07:51:04;102649.33;;;3.26;48.25
77450;BME280;66536;53.150;18.172;2023-04-03T07:53:31;102652.57;;;3.09;48.20
77450;BME280;66536;53.150;18.172;2023-04-03T07:56:26;102652.21;;;3.14;47.94
77450;BME280;66536;53.150;18.172;2023-04-03T07:58:57;102655.98;;;3.23;47.72
77450;BME280;66536;53.150;18.172;2023-04-03T08:01:25;102654.98;;;3.32;47.23
77450;BME280;66536;53.150;18.172;2023-04-03T08:03:54;102652.89;;;3.35;47.13
77450;BME280;66536;53.150;18.172;2023-04-03T08:06:20;102648.05;;;3.31;47.20
77450;BME280;66536;53.150;18.172;2023-04-03T08:08:46;102652.59;;;3.30;46.78
77450;BME280;66536;53.150;18.172;2023-04-03T08:11:13;102643.35;;;3.42;47.57
77450;BME280;66536;53.150;18.172;2023-04-03T08:13:39;102648.95;;;3.38;47.37
77450;BME280;66536;53.150;18.172;2023-04-03T08:16:09;102656.39;;;3.31;47.47
77450;BME280;66536;53.150;18.172;2023-04-03T08:18:35;102658.23;;;3.27;48.18
77450;BME280;66536;53.150;18.172;2023-04-03T08:21:05;102654.73;;;3.28;48.13
77450;BME280;66536;53.150;18.172;2023-04-03T08:23:31;102654.00;;;3.34;48.01
77450;BME280;66536;53.150;18.172;2023-04-03T08:25:57;102654.70;;;3.31;47.32
77450;BME280;66536;53.150;18.172;2023-04-03T08:28:23;102651.70;;;3.23;47.19
77450;BME280;66536;53.150;18.172;2023-04-03T08:30:50;102657.48;;;3.28;47.30
77450;BME280;66536;53.150;18.172;2023-04-03T08:33:17;102654.72;;;3.33;47.11
77450;BME280;66536;53.150;18.172;2023-04-03T08:35:43;102663.45;;;3.26;46.48
77450;BME280;66536;53.150;18.172;2023-04-03T08:38:09;102661.21;;;3.33;46.96
77450;BME280;66536;53.150;18.172;2023-04-03T08:40:35;102661.65;;;3.60;46.18
77450;BME280;66536;53.150;18.172;2023-04-03T08:45:59;102664.92;;;3.95;45.55
77450;BME280;66536;53.150;18.172;2023-04-03T08:48:30;102662.17;;;4.18;45.64
77450;BME280;66536;53.150;18.172;2023-04-03T08:51:00;102661.08;;;4.47;45.55
77450;BME280;66536;53.150;18.172;2023-04-03T08:53:33;102661.19;;;4.74;45.84
77450;BME280;66536;53.150;18.172;2023-04-03T08:56:05;102660.43;;;4.96;44.87
77450;BME280;66536;53.150;18.172;2023-04-03T08:58:42;102672.27;;;5.15;44.57
77450;BME280;66536;53.150;18.172;2023-04-03T09:01:23;102660.70;;;5.23;41.78
77450;BME280;66536;53.150;18.172;2023-04-03T09:03:50;102656.84;;;5.18;42.40
77450;BME280;66536;53.150;18.172;2023-04-03T09:06:23;102665.70;;;5.14;43.46
77450;BME280;66536;53.150;18.172;2023-04-03T09:08:58;102666.98;;;5.26;42.00
77450;BME280;66536;53.150;18.172;2023-04-03T09:11:52;102659.54;;;5.18;41.45
77450;BME280;66536;53.150;18.172;2023-04-03T09:14:41;102662.95;;;5.07;41.18
77450;BME280;66536;53.150;18.172;2023-04-03T09:17:21;102657.55;;;5.07;41.61
77450;BME280;66536;53.150;18.172;2023-04-03T09:19:58;102661.48;;;5.18;41.63
77450;BME280;66536;53.150;18.172;2023-04-03T09:22:31;102659.90;;;5.35;41.28
77450;BME280;66536;53.150;18.172;2023-04-03T09:25:05;102664.98;;;5.50;41.36
77450;BME280;66536;53.150;18.172;2023-04-03T09:27:34;102653.61;;;5.57;40.79
77450;BME280;66536;53.150;18.172;2023-04-03T09:30:02;102655.86;;;5.38;40.06
77450;BME280;66536;53.150;18.172;2023-04-03T09:32:31;102659.11;;;5.28;40.62
77450;BME280;66536;53.150;18.172;2023-04-03T09:35:03;102663.26;;;5.38;40.84
77450;BME280;66536;53.150;18.172;2023-04-03T09:37:38;102650.34;;;5.57;40.10
77450;BME280;66536;53.150;18.172;2023-04-03T09:40:05;102659.38;;;5.82;39.51
77450;BME280;66536;53.150;18.172;2023-04-03T09:42:32;102646.74;;;6.02;39.39
77450;BME280;66536;53.150;18.172;2023-04-03T09:45:01;102644.89;;;6.14;38.32
77450;BME280;66536;53.150;18.172;2023-04-03T09:47:30;102649.32;;;6.31;38.22
77450;BME280;66536;53.150;18.172;2023-04-03T09:50:20;102650.92;;;6.55;38.78
77450;BME280;66536;53.150;18.172;2023-04-03T09:52:49;102652.30;;;6.77;40.05
77450;BME280;66536;53.150;18.172;2023-04-03T09:55:25;102659.06;;;6.92;39.46
77450;BME280;66536;53.150;18.172;2023-04-03T09:58:04;102650.84;;;7.15;39.10
77450;BME280;66536;53.150;18.172;2023-04-03T10:00:37;102644.75;;;7.44;38.50
77450;BME280;66536;53.150;18.172;2023-04-03T10:03:08;102647.65;;;7.59;37.81
77450;BME280;66536;53.150;18.172;2023-04-03T10:05:48;102646.79;;;7.39;38.43
77450;BME280;66536;53.150;18.172;2023-04-03T10:08:24;102650.43;;;6.88;38.60
77450;BME280;66536;53.150;18.172;2023-04-03T10:11:16;102659.99;;;6.69;38.64
77450;BME280;66536;53.150;18.172;2023-04-03T10:13:56;102651.42;;;6.67;39.25
77450;BME280;66536;53.150;18.172;2023-04-03T10:16:29;102650.27;;;6.82;39.00
77450;BME280;66536;53.150;18.172;2023-04-03T10:19:05;102647.75;;;6.82;38.82
77450;BME280;66536;53.150;18.172;2023-04-03T10:21:44;102650.91;;;6.75;38.98
77450;BME280;66536;53.150;18.172;2023-04-03T10:24:19;102665.98;;;6.64;38.30
77450;BME280;66536;53.150;18.172;2023-04-03T10:26:58;102654.54;;;6.51;38.16
77450;BME280;66536;53.150;18.172;2023-04-03T10:29:48;102639.60;;;6.36;38.54
77450;BME280;66536;53.150;18.172;2023-04-03T10:35:39;102659.00;;;5.93;39.52
77450;BME280;66536;53.150;18.172;2023-04-03T10:38:18;102659.08;;;6.13;39.29
77450;BME280;66536;53.150;18.172;2023-04-03T10:40:52;102651.49;;;6.25;39.36
77450;BME280;66536;53.150;18.172;2023-04-03T10:46:13;102649.61;;;6.43;39.31
77450;BME280;66536;53.150;18.172;2023-04-03T10:48:56;102656.41;;;6.42;38.69
77450;BME280;66536;53.150;18.172;2023-04-03T10:51:37;102640.52;;;6.33;38.59
77450;BME280;66536;53.150;18.172;2023-04-03T10:54:12;102649.77;;;6.19;38.53
77450;BME280;66536;53.150;18.172;2023-04-03T10:56:46;102646.28;;;6.24;38.61
77450;BME280;66536;53.150;18.172;2023-04-03T10:59:26;102641.71;;;6.37;38.78
77450;BME280;66536;53.150;18.172;2023-04-03T11:02:07;102642.06;;;6.47;39.09
77450;BME280;66536;53.150;18.172;2023-04-03T11:04:40;102646.45;;;6.51;39.27
77450;BME280;66536;53.150;18.172;2023-04-03T11:07:12;102641.64;;;6.62;38.62
77450;BME280;66536;53.150;18.172;2023-04-03T11:09:54;102644.56;;;6.64;38.39
77450;BME280;66536;53.150;18.172;2023-04-03T11:13:14;102633.58;;;6.58;38.96
77450;BME280;66536;53.150;18.172;2023-04-03T11:16:05;102636.36;;;6.63;38.51
77450;BME280;66536;53.150;18.172;2023-04-03T11:18:40;102639.31;;;7.09;38.77
77450;BME280;66536;53.150;18.172;2023-04-03T11:21:18;102628.55;;;7.33;37.01
77450;BME280;66536;53.150;18.172;2023-04-03T11:23:47;102630.08;;;7.13;37.21
77450;BME280;66536;53.150;18.172;2023-04-03T11:26:37;102641.00;;;6.82;37.18
77450;BME280;66536;53.150;18.172;2023-04-03T11:29:09;102615.48;;;6.37;36.98
77450;BME280;66536;53.150;18.172;2023-04-03T11:37:30;102613.89;;;6.98;36.88
77450;BME280;66536;53.150;18.172;2023-04-03T11:40:04;102613.00;;;7.14;37.64
77450;BME280;66536;53.150;18.172;2023-04-03T11:43:15;102609.97;;;7.38;37.02
77450;BME280;66536;53.150;18.172;2023-04-03T11:45:54;102610.38;;;7.74;37.57
77450;BME280;66536;53.150;18.172;2023-04-03T11:48:41;102613.02;;;7.88;36.34
77450;BME280;66536;53.150;18.172;2023-04-03T11:51:39;102609.89;;;7.65;36.37
77450;BME280;66536;53.150;18.172;2023-04-03T11:56:55;102607.50;;;6.98;37.84
77450;BME280;66536;53.150;18.172;2023-04-03T11:59:23;102601.92;;;6.88;38.22
77450;BME280;66536;53.150;18.172;2023-04-03T12:01:54;102609.67;;;6.97;38.02
77450;BME280;66536;53.150;18.172;2023-04-03T12:04:25;102598.20;;;7.16;36.69
77450;BME280;66536;53.150;18.172;2023-04-03T12:06:58;102593.97;;;7.21;36.82
77450;BME280;66536;53.150;18.172;2023-04-03T12:09:56;102599.49;;;7.27;36.86
77450;BME280;66536;53.150;18.172;2023-04-03T12:12:35;102592.08;;;7.29;36.19
77450;BME280;66536;53.150;18.172;2023-04-03T12:15:12;102593.02;;;7.20;36.44
77450;BME280;66536;53.150;18.172;2023-04-03T12:17:44;102596.55;;;7.21;36.95
77450;BME280;66536;53.150;18.172;2023-04-03T12:23:30;102602.64;;;6.85;36.93
77450;BME280;66536;53.150;18.172;2023-04-03T12:26:04;102602.77;;;6.53;37.67
77450;BME280;66536;53.150;18.172;2023-04-03T12:28:41;102590.66;;;6.64;38.18
77450;BME280;66536;53.150;18.172;2023-04-03T12:31:12;102580.88;;;6.98;36.99
77450;BME280;66536;53.150;18.172;2023-04-03T12:34:06;102568.69;;;7.18;36.81
77450;BME280;66536;53.150;18.172;2023-04-03T12:36:45;102585.61;;;7.26;37.24
77450;BME280;66536;53.150;18.172;2023-04-03T12:42:34;102600.16;;;7.00;36.95
77450;BME280;66536;53.150;18.172;2023-04-03T12:45:17;102595.05;;;6.84;37.88
77450;BME280;66536;53.150;18.172;2023-04-03T12:47:45;102589.38;;;7.26;37.46
77450;BME280;66536;53.150;18.172;2023-04-03T12:50:22;102581.88;;;7.68;37.08
77450;BME280;66536;53.150;18.172;2023-04-03T12:53:06;102587.31;;;7.77;35.74
77450;BME280;66536;53.150;18.172;2023-04-03T12:55:57;102583.46;;;7.66;35.51
77450;BME280;66536;53.150;18.172;2023-04-03T12:58:42;102586.89;;;7.51;35.19
77450;BME280;66536;53.150;18.172;2023-04-03T13:01:16;102589.34;;;7.38;36.21
77450;BME280;66536;53.150;18.172;2023-04-03T13:03:47;102590.16;;;7.20;36.46
77450;BME280;66536;53.150;18.172;2023-04-03T13:06:18;102584.62;;;7.18;36.90
77450;BME280;66536;53.150;18.172;2023-04-03T13:08:51;102580.02;;;7.55;36.73
77450;BME280;66536;53.150;18.172;2023-04-03T13:11:17;102583.66;;;7.88;36.08
77450;BME280;66536;53.150;18.172;2023-04-03T13:13:58;102574.59;;;7.86;35.68
77450;BME280;66536;53.150;18.172;2023-04-03T13:16:56;102570.02;;;7.61;36.31
77450;BME280;66536;53.150;18.172;2023-04-03T13:19:25;102581.19;;;7.46;37.39
77450;BME280;66536;53.150;18.172;2023-04-03T13:21:59;102579.59;;;7.32;37.43
77450;BME280;66536;53.150;18.172;2023-04-03T13:24:32;102587.82;;;7.15;38.02
77450;BME280;66536;53.150;18.172;2023-04-03T13:27:03;102582.45;;;7.15;38.08
77450;BME280;66536;53.150;18.172;2023-04-03T13:29:32;102581.06;;;7.25;37.69
77450;BME280;66536;53.150;18.172;2023-04-03T13:32:03;102576.68;;;7.38;37.70
77450;BME280;66536;53.150;18.172;2023-04-03T13:34:41;102570.16;;;7.22;37.58
77450;BME280;66536;53.150;18.172;2023-04-03T13:37:21;102569.89;;;6.89;38.41
77450;BME280;66536;53.150;18.172;2023-04-03T13:39:58;102571.20;;;6.55;39.61
77450;BME280;66536;53.150;18.172;2023-04-03T13:42:28;102585.89;;;6.50;40.84